createdAt,value
2022-08-20T00:02:19.025Z,4.22
2022-08-20T00:04:50.539Z,3.70
2022-08-20T00:07:22.359Z,3.60
2022-08-20T00:09:53.862Z,3.70
2022-08-20T00:12:25.807Z,3.65
2022-08-20T00:14:57.341Z,3.85
2022-08-20T00:17:36.395Z,4.10
2022-08-20T00:20:08.880Z,3.67
2022-08-20T00:22:41.638Z,4.20
2022-08-20T00:25:13.197Z,3.45
2022-08-20T00:27:45.095Z,4.10
2022-08-20T00:30:16.659Z,3.13
2022-08-20T00:32:48.552Z,3.58
2022-08-20T00:35:20.318Z,3.90
2022-08-20T00:37:52.319Z,4.47
2022-08-20T00:40:24.065Z,3.63
2022-08-20T00:42:57.792Z,3.40
2022-08-20T00:45:29.296Z,4.13
2022-08-20T00:48:01.217Z,3.30
2022-08-20T00:50:34.016Z,3.33
2022-08-20T00:53:05.848Z,3.63
2022-08-20T00:55:37.352Z,3.33
2022-08-20T00:58:10.107Z,3.60
2022-08-20T01:00:42.712Z,4.00
2022-08-20T01:03:15.245Z,3.53
2022-08-20T01:05:47.917Z,3.05
2022-08-20T01:08:19.719Z,3.13
2022-08-20T01:10:53.718Z,4.05
2022-08-20T01:13:26.100Z,3.97
2022-08-20T01:15:57.744Z,3.83
2022-08-20T01:18:29.585Z,3.22
2022-08-20T01:21:01.084Z,3.85
2022-08-20T01:23:33.056Z,3.65
2022-08-20T01:26:04.752Z,3.30
2022-08-20T01:28:36.681Z,2.90
2022-08-20T01:31:08.181Z,2.83
2022-08-20T01:33:40.019Z,2.85
2022-08-20T01:36:13.568Z,3.25
2022-08-20T01:38:54.059Z,3.13
2022-08-20T01:41:26.296Z,3.63
2022-08-20T01:44:00.198Z,3.00
2022-08-20T01:46:33.284Z,3.42
2022-08-20T01:49:12.435Z,4.07
2022-08-20T01:51:45.638Z,2.78
2022-08-20T01:54:20.510Z,3.65
2022-08-20T01:56:52.401Z,3.17
2022-08-20T01:59:23.950Z,3.10
2022-08-20T02:01:55.525Z,2.72
2022-08-20T02:04:27.057Z,2.85
2022-08-20T02:06:58.995Z,2.47
2022-08-20T02:09:30.547Z,2.50
2022-08-20T02:12:03.656Z,2.72
2022-08-20T02:14:35.154Z,3.53
2022-08-20T02:17:07.427Z,2.88
2022-08-20T02:19:38.997Z,2.97
2022-08-20T02:22:10.849Z,3.22
2022-08-20T02:24:43.237Z,2.88
2022-08-20T02:27:15.285Z,3.00
2022-08-20T02:29:46.792Z,3.53
2022-08-20T02:32:32.062Z,3.00
2022-08-20T02:35:08.110Z,3.50
2022-08-20T02:37:39.977Z,3.03
2022-08-20T02:40:11.547Z,3.47
2022-08-20T02:42:43.482Z,3.25
2022-08-20T02:47:52.516Z,3.33
2022-08-20T02:50:24.630Z,3.05
2022-08-20T02:52:56.120Z,3.53
2022-08-20T02:55:28.526Z,3.25
2022-08-20T02:58:00.359Z,3.88
2022-08-20T03:00:38.322Z,3.30
2022-08-20T03:03:10.505Z,3.83
2022-08-20T03:05:42.515Z,3.67
2022-08-20T03:08:14.723Z,3.22
2022-08-20T03:10:46.594Z,3.58
2022-08-20T03:13:18.445Z,3.30
2022-08-20T03:15:50.278Z,3.28
2022-08-20T03:18:21.788Z,4.38
2022-08-20T03:20:53.720Z,3.65
2022-08-20T03:23:26.611Z,3.70
2022-08-20T03:25:58.417Z,3.63
2022-08-20T03:28:29.919Z,4.25
2022-08-20T03:31:01.743Z,4.43
2022-08-20T03:33:33.284Z,4.47
2022-08-20T03:36:05.308Z,4.43
2022-08-20T03:38:36.808Z,4.73
2022-08-20T03:41:08.569Z,4.03
2022-08-20T03:43:44.727Z,4.15
2022-08-20T03:46:23.009Z,4.35
2022-08-20T03:49:01.184Z,4.30
2022-08-20T03:51:45.976Z,3.97
2022-08-20T03:54:24.549Z,4.43
2022-08-20T03:57:12.365Z,3.75
2022-08-20T03:59:44.553Z,4.90
2022-08-20T04:02:16.391Z,4.57
2022-08-20T04:04:47.980Z,4.57
2022-08-20T04:07:26.038Z,4.43
2022-08-20T04:09:57.655Z,4.50
2022-08-20T04:12:29.647Z,5.10
2022-08-20T04:15:02.006Z,5.57
2022-08-20T04:17:34.009Z,4.78
2022-08-20T04:20:08.250Z,4.95
2022-08-20T04:22:42.451Z,4.80
2022-08-20T04:25:30.007Z,5.65
2022-08-20T04:28:07.219Z,5.30
2022-08-20T04:30:38.989Z,5.57
2022-08-20T04:33:16.701Z,4.88
2022-08-20T04:35:54.443Z,4.93
2022-08-20T04:38:26.205Z,5.15
2022-08-20T04:41:22.836Z,4.50
2022-08-20T04:43:54.864Z,4.70
2022-08-20T04:46:28.516Z,5.43
2022-08-20T04:49:01.205Z,5.05
2022-08-20T04:51:33.832Z,6.20
2022-08-20T04:56:40.255Z,4.90
2022-08-20T04:59:11.789Z,4.85
2022-08-20T05:01:43.613Z,4.63
2022-08-20T05:04:15.109Z,4.68
2022-08-20T05:06:46.947Z,4.18
2022-08-20T05:09:18.466Z,4.63
2022-08-20T05:11:50.772Z,4.70
2022-08-20T05:14:22.296Z,4.82
2022-08-20T05:16:57.453Z,4.93
2022-08-20T05:19:29.005Z,4.65
2022-08-20T05:22:01.776Z,4.13
2022-08-20T05:24:33.302Z,4.40
2022-08-20T05:27:05.282Z,4.63
2022-08-20T05:29:36.782Z,5.13
2022-08-20T05:32:08.705Z,3.65
2022-08-20T05:34:40.241Z,5.28
2022-08-20T05:37:12.076Z,4.68
2022-08-20T05:39:44.166Z,4.95
2022-08-20T05:42:16.161Z,4.43
2022-08-20T05:44:47.666Z,4.70
2022-08-20T05:47:19.511Z,4.45
2022-08-20T05:49:53.441Z,4.20
2022-08-20T05:52:25.279Z,4.13
2022-08-20T05:54:56.785Z,5.05
2022-08-20T05:57:28.641Z,4.53
2022-08-20T06:00:00.192Z,4.38
2022-08-20T06:02:50.881Z,4.57
2022-08-20T06:05:22.385Z,4.75
2022-08-20T06:07:54.793Z,4.18
2022-08-20T06:10:29.825Z,4.28
2022-08-20T06:13:02.877Z,4.88
2022-08-20T06:15:34.717Z,4.13
2022-08-20T06:18:16.674Z,5.22
2022-08-20T06:20:59.685Z,4.37
2022-08-20T06:23:43.642Z,4.60
2022-08-20T06:26:24.925Z,3.83
2022-08-20T06:29:02.014Z,4.55
2022-08-20T06:31:35.452Z,4.00
2022-08-20T06:34:07.449Z,3.80
2022-08-20T06:36:39.278Z,4.63
2022-08-20T06:39:10.768Z,4.63
2022-08-20T06:41:42.610Z,4.47
2022-08-20T06:44:14.730Z,4.38
2022-08-20T06:46:46.722Z,4.18
2022-08-20T06:49:18.572Z,3.97
2022-08-20T06:51:52.059Z,4.28
2022-08-20T06:54:29.398Z,4.93
2022-08-20T06:57:01.669Z,4.88
2022-08-20T06:59:33.189Z,5.28
2022-08-20T07:02:06.115Z,4.72
2022-08-20T07:07:09.557Z,5.15
2022-08-20T07:09:41.096Z,4.63
2022-08-20T07:12:12.994Z,4.97
2022-08-20T07:14:44.548Z,5.38
2022-08-20T07:17:16.346Z,5.10
2022-08-20T07:19:47.908Z,5.38
2022-08-20T07:22:19.749Z,4.93
2022-08-20T07:24:51.273Z,4.50
2022-08-20T07:27:23.160Z,4.75
2022-08-20T07:30:15.251Z,5.20
2022-08-20T07:32:47.672Z,5.13
2022-08-20T07:35:19.608Z,5.15
2022-08-20T07:37:51.775Z,4.80
2022-08-20T07:40:26.170Z,5.03
2022-08-20T07:42:58.638Z,5.43
2022-08-20T07:45:30.259Z,4.97
2022-08-20T07:48:02.852Z,5.55
2022-08-20T07:50:34.425Z,5.45
2022-08-20T07:53:05.943Z,5.07
2022-08-20T07:55:37.781Z,5.85
2022-08-20T07:58:09.427Z,4.57
2022-08-20T08:00:41.590Z,5.82
2022-08-20T08:03:13.163Z,5.72
2022-08-20T08:05:45.066Z,4.88
2022-08-20T08:08:17.599Z,5.68
2022-08-20T08:10:49.165Z,5.85
2022-08-20T08:13:20.690Z,5.85
2022-08-20T08:15:52.566Z,5.95
2022-08-20T08:18:27.743Z,6.90
2022-08-20T08:21:01.639Z,5.40
2022-08-20T08:23:34.608Z,6.03
2022-08-20T08:26:06.623Z,5.85
2022-08-20T08:28:47.341Z,6.00
2022-08-20T08:31:19.199Z,5.47
2022-08-20T08:33:50.710Z,6.90
2022-08-20T08:36:22.773Z,5.22
2022-08-20T08:38:55.053Z,7.27
2022-08-20T08:41:26.954Z,6.03
2022-08-20T08:43:58.463Z,6.13
2022-08-20T08:46:30.305Z,6.30
2022-08-20T08:49:02.617Z,5.88
2022-08-20T08:51:35.354Z,6.00
2022-08-20T08:54:07.638Z,6.63
2022-08-20T08:56:39.562Z,6.05
2022-08-20T08:59:11.138Z,6.07
2022-08-20T09:01:54.682Z,5.38
2022-08-20T09:04:30.342Z,6.03
2022-08-20T09:07:02.132Z,5.80
2022-08-20T09:09:33.744Z,6.60
2022-08-20T09:12:05.637Z,5.57
2022-08-20T09:14:37.185Z,6.22
2022-08-20T09:17:08.721Z,5.28
2022-08-20T09:19:40.221Z,5.93
2022-08-20T09:22:11.742Z,6.28
2022-08-20T09:24:43.886Z,6.68
2022-08-20T09:27:15.446Z,6.25
2022-08-20T09:29:49.230Z,5.55
2022-08-20T09:32:21.046Z,6.32
2022-08-20T09:34:56.226Z,6.43
2022-08-20T09:37:27.752Z,6.10
2022-08-20T09:39:59.946Z,5.38
2022-08-20T09:42:31.556Z,5.63
2022-08-20T09:45:03.122Z,5.78
2022-08-20T09:47:34.990Z,5.67
2022-08-20T09:50:06.917Z,6.40
2022-08-20T09:52:40.870Z,5.43
2022-08-20T09:55:12.737Z,4.80
2022-08-20T09:57:46.174Z,5.18
2022-08-20T10:00:18.201Z,4.55
2022-08-20T10:02:49.727Z,5.03
2022-08-20T10:05:21.684Z,4.90
2022-08-20T10:07:54.319Z,5.45
2022-08-20T10:10:26.296Z,4.93
2022-08-20T10:12:57.820Z,5.53
2022-08-20T10:15:29.639Z,4.68
2022-08-20T10:18:03.605Z,4.63
2022-08-20T10:20:36.007Z,4.38
2022-08-20T10:23:07.524Z,3.88
2022-08-20T10:25:39.492Z,4.38
2022-08-20T10:28:11.075Z,4.33
2022-08-20T10:30:43.677Z,3.88
2022-08-20T10:33:15.184Z,4.00
2022-08-20T10:35:47.178Z,4.15
2022-08-20T10:38:18.679Z,3.93
2022-08-20T10:40:52.616Z,4.20
2022-08-20T10:43:24.299Z,3.38
2022-08-20T10:45:56.331Z,3.78
2022-08-20T10:48:27.877Z,3.28
2022-08-20T10:50:59.753Z,3.63
2022-08-20T10:53:31.283Z,3.30
2022-08-20T10:56:03.161Z,3.00
2022-08-20T10:58:39.606Z,2.57
2022-08-20T11:01:11.711Z,2.50
2022-08-20T11:03:43.251Z,2.60
2022-08-20T11:06:15.076Z,2.70
2022-08-20T11:08:46.585Z,2.50
2022-08-20T11:11:18.531Z,2.60
2022-08-20T11:13:50.087Z,2.50
2022-08-20T11:16:21.914Z,2.42
2022-08-20T11:21:26.267Z,2.80
2022-08-20T11:24:02.237Z,2.20
2022-08-20T11:26:34.650Z,2.80
2022-08-20T11:29:06.159Z,1.92
2022-08-20T11:31:38.219Z,2.38
2022-08-20T11:34:12.760Z,2.35
2022-08-20T11:36:44.808Z,2.30
2022-08-20T11:39:16.327Z,2.53
2022-08-20T11:41:48.264Z,2.50
2022-08-20T11:44:26.990Z,2.38
2022-08-20T11:47:00.339Z,2.42
2022-08-20T11:49:31.913Z,2.63
2022-08-20T11:52:05.343Z,2.60
2022-08-20T11:54:40.423Z,2.60
2022-08-20T11:57:13.149Z,2.60
2022-08-20T11:59:44.656Z,2.72
2022-08-20T12:02:16.573Z,2.70
2022-08-20T12:04:48.204Z,2.60
2022-08-20T12:07:20.006Z,2.78
2022-08-20T12:09:51.521Z,2.45
2022-08-20T12:12:24.535Z,2.50
2022-08-20T12:14:56.119Z,2.78
2022-08-20T12:17:28.004Z,2.40
2022-08-20T12:19:59.509Z,1.98
2022-08-20T12:22:31.384Z,2.45
2022-08-20T12:25:02.924Z,1.80
2022-08-20T12:27:34.772Z,1.98
2022-08-20T12:30:06.328Z,2.13
2022-08-20T12:32:38.253Z,1.77
2022-08-20T12:35:09.945Z,2.40
2022-08-20T12:37:41.760Z,1.73
2022-08-20T12:40:13.685Z,2.40
2022-08-20T12:42:45.754Z,2.67
2022-08-20T12:45:17.260Z,2.60
2022-08-20T12:47:49.659Z,2.00
2022-08-20T12:50:21.518Z,2.05
2022-08-20T12:52:53.114Z,1.93
2022-08-20T12:55:25.148Z,1.90
2022-08-20T12:57:57.085Z,1.80
2022-08-20T13:00:28.943Z,1.80
2022-08-20T13:05:33.549Z,1.98
2022-08-20T13:08:05.909Z,1.70
2022-08-20T13:10:37.843Z,2.13
2022-08-20T13:13:09.361Z,1.93
2022-08-20T13:15:41.259Z,1.25
2022-08-20T13:18:12.797Z,1.77
2022-08-20T13:20:45.053Z,2.17
2022-08-20T13:23:16.620Z,2.00
2022-08-20T13:25:48.494Z,1.70
2022-08-20T13:28:19.995Z,2.05
2022-08-20T13:30:52.020Z,2.00
2022-08-20T13:33:25.141Z,2.00
2022-08-20T13:35:57.460Z,2.42
2022-08-20T13:38:28.972Z,2.17
2022-08-20T13:41:00.756Z,2.15
2022-08-20T13:43:32.247Z,2.33
2022-08-20T13:46:05.244Z,2.38
2022-08-20T13:48:36.788Z,2.30
2022-08-20T13:51:08.689Z,2.22
2022-08-20T13:53:40.193Z,2.53
2022-08-20T13:56:12.192Z,2.30
2022-08-20T13:58:43.709Z,2.67
2022-08-20T14:01:15.546Z,3.03
2022-08-20T14:03:47.847Z,2.90
2022-08-20T14:08:52.065Z,2.65
2022-08-20T14:11:23.946Z,2.72
2022-08-20T14:13:55.468Z,2.90
2022-08-20T14:16:28.480Z,2.83
2022-08-20T14:19:01.268Z,3.08
2022-08-20T14:21:33.087Z,3.17
2022-08-20T14:24:04.590Z,3.25
2022-08-20T14:26:36.116Z,2.90
2022-08-20T14:29:07.638Z,3.22
2022-08-20T14:31:39.703Z,2.95
2022-08-20T14:34:11.315Z,3.33
2022-08-20T14:36:42.822Z,3.25
2022-08-20T14:39:18.545Z,3.00
2022-08-20T14:41:52.124Z,2.42
2022-08-20T14:44:23.608Z,3.17
2022-08-20T14:46:55.348Z,2.90
2022-08-20T14:49:26.853Z,3.05
2022-08-20T14:51:58.821Z,3.25
2022-08-20T14:54:30.323Z,3.10
2022-08-20T14:57:02.293Z,3.30
2022-08-20T14:59:34.298Z,3.60
2022-08-20T15:02:06.456Z,3.53
2022-08-20T15:04:38.023Z,2.90
2022-08-20T15:07:13.099Z,2.97
2022-08-20T15:09:44.873Z,3.45
2022-08-20T15:12:16.709Z,3.20
2022-08-20T15:14:49.062Z,3.35
2022-08-20T15:17:21.017Z,3.28
2022-08-20T15:19:52.577Z,4.13
2022-08-20T15:22:24.370Z,3.03
2022-08-20T15:24:57.655Z,3.40
2022-08-20T15:27:29.301Z,2.97
2022-08-20T15:30:01.463Z,4.07
2022-08-20T15:32:33.104Z,3.20
2022-08-20T15:35:05.098Z,3.17
2022-08-20T15:37:39.365Z,3.95
2022-08-20T15:40:11.316Z,3.55
2022-08-20T15:42:42.848Z,3.73
2022-08-20T15:45:21.733Z,3.20
2022-08-20T15:47:53.894Z,3.20
2022-08-20T15:50:25.736Z,3.58
2022-08-20T15:52:57.438Z,3.30
2022-08-20T15:55:29.443Z,2.58
2022-08-20T15:58:01.138Z,3.58
2022-08-20T16:00:32.674Z,3.45
2022-08-20T16:03:05.992Z,3.47
2022-08-20T16:05:37.600Z,3.63
2022-08-20T16:08:09.180Z,3.70
2022-08-20T16:10:41.175Z,3.90
2022-08-20T16:13:12.704Z,4.33
2022-08-20T16:15:49.317Z,3.85
2022-08-20T16:18:21.152Z,3.33
2022-08-20T16:20:53.203Z,3.80
2022-08-20T16:23:24.744Z,4.13
2022-08-20T16:25:56.605Z,4.28
2022-08-20T16:28:28.838Z,4.32
2022-08-20T16:31:00.692Z,4.10
2022-08-20T16:33:32.338Z,3.85
2022-08-20T16:36:04.377Z,3.42
2022-08-20T16:38:35.918Z,3.80
2022-08-20T16:41:07.734Z,4.25
2022-08-20T16:43:39.267Z,3.58
2022-08-20T16:46:11.064Z,4.20
2022-08-20T16:48:42.602Z,3.72
2022-08-20T16:51:14.130Z,4.15
2022-08-20T16:53:45.644Z,3.88
2022-08-20T16:56:17.172Z,3.95
2022-08-20T16:58:48.678Z,4.10
2022-08-20T17:01:20.673Z,4.13
2022-08-20T17:03:52.282Z,4.30
2022-08-20T17:06:24.528Z,4.13
2022-08-20T17:08:56.049Z,4.13
2022-08-20T17:11:29.339Z,4.28
2022-08-20T17:14:00.880Z,4.07
2022-08-20T17:16:33.228Z,4.07
2022-08-20T17:19:04.745Z,4.38
2022-08-20T17:21:39.962Z,4.05
2022-08-20T17:24:16.545Z,3.92
2022-08-20T17:26:48.705Z,3.80
2022-08-20T17:29:21.276Z,3.78
2022-08-20T17:31:53.132Z,3.55
2022-08-20T17:34:24.643Z,4.35
2022-08-20T17:36:56.532Z,3.65
2022-08-20T17:39:28.092Z,4.07
2022-08-20T17:42:00.025Z,3.38
2022-08-20T17:44:33.478Z,4.55
2022-08-20T17:47:06.445Z,3.38
2022-08-20T17:49:39.371Z,3.47
2022-08-20T17:52:11.280Z,3.38
2022-08-20T17:54:42.822Z,3.00
2022-08-20T17:57:14.685Z,3.47
2022-08-20T18:00:01.331Z,3.47
2022-08-20T18:02:34.003Z,3.95
2022-08-20T18:05:05.935Z,4.03
2022-08-20T18:07:37.451Z,3.47
2022-08-20T18:10:09.236Z,4.20
2022-08-20T18:12:40.776Z,7.38
2022-08-20T18:15:12.306Z,4.07
2022-08-20T18:17:44.415Z,3.20
2022-08-20T18:20:16.447Z,3.03
2022-08-20T18:22:47.970Z,2.33
2022-08-20T18:25:19.863Z,2.15
2022-08-20T18:27:51.387Z,1.73
2022-08-20T18:30:23.386Z,1.55
2022-08-20T18:32:54.894Z,1.70
2022-08-20T18:35:26.742Z,1.60
2022-08-20T18:37:58.328Z,1.80
2022-08-20T18:40:30.524Z,2.05
2022-08-20T18:43:04.872Z,1.98
2022-08-20T18:45:36.727Z,1.55
2022-08-20T18:48:08.342Z,1.42
2022-08-20T18:50:40.263Z,1.45
2022-08-20T18:53:12.061Z,1.65
2022-08-20T18:55:44.021Z,1.30
2022-08-20T18:58:15.549Z,1.55
2022-08-20T19:00:47.177Z,1.73
2022-08-20T19:03:19.808Z,1.48
2022-08-20T19:05:51.707Z,1.50
2022-08-20T19:08:23.203Z,1.95
2022-08-20T19:10:55.479Z,1.40
2022-08-20T19:13:26.993Z,1.38
2022-08-20T19:15:58.521Z,2.08
2022-08-20T19:18:30.085Z,2.05
2022-08-20T19:21:01.981Z,2.20
2022-08-20T19:23:33.520Z,1.83
2022-08-20T19:26:05.889Z,2.08
2022-08-20T19:28:49.420Z,2.40
2022-08-20T19:31:21.277Z,1.95
2022-08-20T19:33:52.817Z,2.40
2022-08-20T19:36:28.368Z,2.63
2022-08-20T19:39:00.140Z,2.25
2022-08-20T19:44:04.498Z,1.95
2022-08-20T19:46:36.143Z,2.15
2022-08-20T19:49:07.881Z,2.20
2022-08-20T19:51:44.142Z,1.70
2022-08-20T19:54:19.484Z,2.15
2022-08-20T19:56:52.097Z,2.58
2022-08-20T19:59:26.742Z,2.30
2022-08-20T20:02:03.016Z,2.08
2022-08-20T20:04:34.610Z,2.83
2022-08-20T20:07:06.461Z,2.28
2022-08-20T20:09:38.032Z,2.08
2022-08-20T20:12:10.230Z,2.05
2022-08-20T20:14:54.523Z,2.50
2022-08-20T20:17:26.490Z,2.35
2022-08-20T20:19:59.154Z,2.45
2022-08-20T20:22:31.047Z,2.20
2022-08-20T20:25:02.912Z,2.25
2022-08-20T20:27:34.898Z,1.83
2022-08-20T20:30:06.428Z,2.03
2022-08-20T20:32:38.242Z,2.40
2022-08-20T20:35:09.762Z,2.30
2022-08-20T20:37:49.050Z,1.83
2022-08-20T20:40:22.878Z,2.35
2022-08-20T20:42:54.454Z,2.13
2022-08-20T20:45:26.342Z,2.10
2022-08-20T20:47:57.908Z,2.10
2022-08-20T20:50:30.021Z,2.22
2022-08-20T20:53:01.585Z,2.27
2022-08-20T20:55:33.181Z,2.00
2022-08-20T20:58:04.849Z,2.03
2022-08-20T21:00:36.884Z,2.40
2022-08-20T21:03:08.474Z,2.60
2022-08-20T21:05:40.766Z,2.40
2022-08-20T21:08:12.305Z,1.88
2022-08-20T21:10:44.285Z,2.45
2022-08-20T21:13:16.382Z,2.72
2022-08-20T21:15:48.356Z,2.00
2022-08-20T21:18:24.096Z,2.42
2022-08-20T21:20:58.461Z,2.05
2022-08-20T21:23:39.637Z,2.08
2022-08-20T21:26:13.262Z,2.30
2022-08-20T21:28:44.898Z,2.22
2022-08-20T21:31:16.829Z,2.20
2022-08-20T21:33:48.323Z,2.38
2022-08-20T21:36:19.880Z,2.05
2022-08-20T21:38:51.726Z,2.42
2022-08-20T21:41:30.057Z,2.10
2022-08-20T21:44:01.940Z,1.85
2022-08-20T21:46:33.623Z,2.03
2022-08-20T21:49:05.249Z,2.03
2022-08-20T21:51:37.218Z,1.52
2022-08-20T21:54:08.721Z,2.15
2022-08-20T21:56:40.868Z,2.35
2022-08-20T21:59:12.444Z,2.17
2022-08-20T22:01:44.048Z,1.98
2022-08-20T22:04:15.700Z,1.58
2022-08-20T22:06:47.237Z,1.77
2022-08-20T22:09:18.853Z,1.70
2022-08-20T22:11:54.163Z,1.75
2022-08-20T22:14:26.782Z,1.65
2022-08-20T22:16:58.643Z,1.55
2022-08-20T22:19:30.474Z,1.67
2022-08-20T22:22:02.434Z,1.92
2022-08-20T22:24:33.975Z,1.65
2022-08-20T22:27:05.848Z,1.52
2022-08-20T22:29:37.407Z,1.52
2022-08-20T22:32:09.261Z,1.92
2022-08-20T22:34:41.005Z,1.70
2022-08-20T22:37:12.557Z,1.38
2022-08-20T22:39:44.083Z,1.65
2022-08-20T22:42:15.678Z,1.60
2022-08-20T22:44:47.172Z,1.60
2022-08-20T22:47:18.706Z,1.58
2022-08-20T22:49:50.215Z,1.55
2022-08-20T22:52:22.138Z,1.42
2022-08-20T22:54:58.240Z,1.70
2022-08-20T22:57:31.453Z,1.60
2022-08-20T23:00:06.003Z,1.58
2022-08-20T23:02:37.928Z,1.48
2022-08-20T23:05:09.720Z,2.00
2022-08-20T23:07:41.610Z,1.50
2022-08-20T23:10:13.450Z,1.52
2022-08-20T23:12:44.958Z,1.40
2022-08-20T23:15:16.779Z,1.70
2022-08-20T23:17:48.291Z,1.52
2022-08-20T23:20:20.157Z,1.90
2022-08-20T23:22:51.745Z,1.67
2022-08-20T23:25:26.827Z,1.67
2022-08-20T23:30:36.425Z,1.63
2022-08-20T23:33:08.084Z,1.43
2022-08-20T23:35:39.973Z,1.77
2022-08-20T23:38:11.481Z,1.42
2022-08-20T23:40:43.413Z,1.90
2022-08-20T23:43:14.931Z,2.05
2022-08-20T23:45:46.731Z,1.83
2022-08-20T23:48:18.456Z,1.55
2022-08-20T23:50:50.243Z,1.63
2022-08-20T23:53:21.751Z,1.75
2022-08-20T23:55:53.587Z,1.70
2022-08-20T23:58:25.105Z,1.60
